Time;durP1;ratioP1;P1;durP2;ratioP2;P2;SDS_P1;SDS_P2;PMS_P1;PMS_P2;Temp;Humidity;BMP_temperature;BMP_pressure;BME280_temperature;BME280_humidity;BME280_pressure;Samples;Min_cycle;Max_cycle;Signal;HPM_P1;HPM_P2
2023/01/25 00:00:00;;;;;;;23.87;22.83;;;19.70;46.30;;;;;;5092728;28;20442;-53
2023/01/25 00:02:27;;;;;;;23.43;22.40;;;19.70;46.30;;;;;;5092682;28;20466;-53
2023/01/25 00:04:54;;;;;;;23.17;22.20;;;19.70;46.30;;;;;;5095798;28;20480;-53
2023/01/25 00:07:22;;;;;;;23.23;22.33;;;19.70;46.40;;;;;;5113215;28;20465;-55
2023/01/25 00:09:49;;;;;;;25.40;24.40;;;19.70;46.30;;;;;;5112709;28;20810;-55
2023/01/25 00:12:15;;;;;;;23.27;22.33;;;19.60;46.30;;;;;;5112409;28;20477;-53
2023/01/25 00:14:42;;;;;;;23.70;22.57;;;19.60;46.30;;;;;;5111240;28;20525;-53
2023/01/25 00:17:09;;;;;;;22.67;21.77;;;19.60;46.20;;;;;;5107495;28;20548;-53
2023/01/25 00:19:36;;;;;;;23.77;22.67;;;19.60;46.30;;;;;;5092254;28;20788;-57
2023/01/25 00:22:03;;;;;;;24.27;23.20;;;19.60;46.30;;;;;;5092328;28;20541;-55
2023/01/25 00:24:31;;;;;;;23.53;22.57;;;19.60;46.30;;;;;;5092148;28;20529;-54
2023/01/25 00:26:58;;;;;;;24.37;23.37;;;19.60;46.30;;;;;;5111142;28;20468;-55
2023/01/25 00:29:25;;;;;;;24.67;23.50;;;19.60;46.40;;;;;;5112515;28;20452;-54
2023/01/25 00:32:02;;;;;;;24.47;23.47;;;19.60;46.40;;;;;;5112503;28;20448;-53
2023/01/25 00:34:45;;;;;;;24.17;23.17;;;19.50;46.40;;;;;;5112458;28;20826;-54
2023/01/25 00:37:18;;;;;;;23.97;22.97;;;19.60;46.40;;;;;;5107635;28;20464;-55
2023/01/25 00:39:46;;;;;;;24.10;23.10;;;19.60;46.40;;;;;;5091957;28;20446;-53
2023/01/25 00:42:15;;;;;;;24.27;23.17;;;19.60;46.50;;;;;;5091972;28;20879;-57
2023/01/25 00:44:42;;;;;;;24.57;23.57;;;19.60;46.40;;;;;;5091918;28;20911;-56
2023/01/25 00:47:09;;;;;;;24.40;23.40;;;19.50;46.40;;;;;;5109711;28;20526;-54
2023/01/25 00:49:37;;;;;;;23.57;22.63;;;19.50;46.40;;;;;;5112081;28;20531;-56
2023/01/25 00:52:05;;;;;;;23.77;22.77;;;19.50;46.50;;;;;;5112213;28;20445;-54
2023/01/25 00:54:32;;;;;;;24.43;23.23;;;19.50;46.50;;;;;;5112247;28;20495;-53
2023/01/25 00:57:00;;;;;;;23.57;22.67;;;19.50;46.40;;;;;;5095342;28;20465;-54
2023/01/25 00:59:27;;;;;;;24.70;23.60;;;19.50;46.40;;;;;;5091688;28;20446;-53
2023/01/25 01:01:54;;;;;;;24.67;23.57;;;19.50;46.40;;;;;;5091810;28;20533;-54
2023/01/25 01:04:23;;;;;;;24.80;23.80;;;19.50;46.40;;;;;;5099519;28;20544;-52
2023/01/25 01:06:52;;;;;;;25.53;24.43;;;19.50;46.40;;;;;;5111885;28;20485;-54
2023/01/25 01:09:20;;;;;;;24.07;23.07;;;19.50;46.50;;;;;;5111866;28;20449;-58
2023/01/25 01:11:47;;;;;;;23.70;22.70;;;19.50;46.40;;;;;;5112017;28;20446;-54
2023/01/25 01:14:15;;;;;;;23.43;22.33;;;19.50;46.40;;;;;;5104966;28;20537;-55
2023/01/25 01:16:42;;;;;;;24.30;23.30;;;19.50;46.40;;;;;;5091537;28;20464;-56
2023/01/25 01:19:09;;;;;;;24.47;23.30;;;19.50;46.50;;;;;;5091431;28;20452;-53
2023/01/25 01:21:36;;;;;;;23.70;22.70;;;19.50;47.00;;;;;;5091430;28;20446;-54
2023/01/25 01:24:03;;;;;;;23.80;22.80;;;19.50;46.40;;;;;;5096745;28;20437;-55
2023/01/25 01:26:30;;;;;;;24.30;23.20;;;19.50;46.40;;;;;;5115904;28;20481;-56
2023/01/25 01:28:57;;;;;;;24.70;23.60;;;19.40;46.40;;;;;;5115892;28;20830;-55
2023/01/25 01:31:26;;;;;;;24.20;23.20;;;19.50;46.50;;;;;;5115951;28;20441;-53
2023/01/25 01:33:55;;;;;;;23.93;22.93;;;19.50;46.50;;;;;;5114205;28;20438;-55
2023/01/25 01:36:23;;;;;;;23.87;22.90;;;19.40;46.40;;;;;;5115854;28;20464;-54
2023/01/25 01:38:50;;;;;;;24.63;23.30;;;19.50;46.50;;;;;;5115707;28;20442;-55
2023/01/25 01:41:17;;;;;;;23.70;22.70;;;19.50;46.60;;;;;;5115831;28;20445;-55
2023/01/25 01:43:44;;;;;;;23.53;22.33;;;19.50;46.60;;;;;;5113699;28;20445;-54
2023/01/25 01:46:15;;;;;;;22.87;21.97;;;19.50;46.60;;;;;;5095151;28;20486;-56
2023/01/25 01:48:46;;;;;;;23.40;22.40;;;19.50;46.60;;;;;;5095249;28;20450;-56
2023/01/25 01:51:19;;;;;;;23.07;22.07;;;19.50;46.60;;;;;;5095178;28;20449;-54
2023/01/25 01:53:50;;;;;;;23.97;22.97;;;19.50;46.60;;;;;;5110896;28;20448;-52
2023/01/25 01:56:23;;;;;;;22.77;21.83;;;19.50;46.60;;;;;;5115486;28;20468;-56
2023/01/25 01:58:53;;;;;;;23.10;22.20;;;19.50;46.60;;;;;;5115469;28;20780;-52
2023/01/25 02:01:20;;;;;;;22.90;21.90;;;19.50;46.60;;;;;;5115414;28;20811;-56
2023/01/25 02:03:48;;;;;;;23.60;22.60;;;19.40;46.50;;;;;;5099272;28;20461;-56
2023/01/25 02:06:21;;;;;;;24.40;23.30;;;19.40;46.50;;;;;;5094751;28;20492;-53
2023/01/25 02:08:49;;;;;;;23.60;22.50;;;19.40;46.50;;;;;;5094688;28;20442;-54
2023/01/25 02:11:16;;;;;;;24.30;23.20;;;19.40;46.60;;;;;;5102940;28;20442;-56
2023/01/25 02:13:43;;;;;;;22.87;21.97;;;19.40;46.60;;;;;;5115157;28;20814;-53
2023/01/25 02:16:16;;;;;;;22.67;21.77;;;19.40;46.60;;;;;;5115093;28;20453;-54
2023/01/25 02:18:43;;;;;;;23.17;22.17;;;19.40;46.50;;;;;;5115111;28;20441;-52
2023/01/25 02:21:11;;;;;;;23.67;22.67;;;19.40;46.50;;;;;;5108538;28;20439;-52
2023/01/25 02:23:47;;;;;;;23.70;22.70;;;19.40;46.50;;;;;;5101148;28;20441;-55
2023/01/25 02:26:17;;;;;;;24.33;23.23;;;19.40;46.50;;;;;;5114742;28;20485;-52
2023/01/25 02:28:47;;;;;;;23.67;22.67;;;19.40;46.50;;;;;;5115084;28;20434;-56
2023/01/25 02:31:14;;;;;;;23.97;22.93;;;19.40;46.60;;;;;;5107044;28;20446;-53
2023/01/25 02:33:42;;;;;;;23.50;22.50;;;19.40;46.60;;;;;;5094453;28;20826;-52
2023/01/25 02:36:20;;;;;;;23.93;22.73;;;19.40;46.60;;;;;;5093673;28;21050;-55
2023/01/25 02:38:51;;;;;;;23.70;22.50;;;19.40;46.60;;;;;;5094175;28;20446;-53
2023/01/25 02:41:24;;;;;;;23.70;22.70;;;19.40;46.60;;;;;;5101855;28;20445;-53
2023/01/25 02:43:51;;;;;;;24.53;23.43;;;19.40;46.60;;;;;;5114587;28;20823;-57
2023/01/25 02:46:24;;;;;;;24.30;23.30;;;19.40;46.60;;;;;;5114435;28;20853;-52
2023/01/25 02:48:51;;;;;;;23.50;22.50;;;19.40;46.60;;;;;;5114338;28;20433;-54
2023/01/25 02:51:18;;;;;;;23.63;22.53;;;19.40;46.60;;;;;;5106493;28;20533;-53
2023/01/25 02:53:45;;;;;;;24.43;23.33;;;19.40;46.60;;;;;;5094113;28;20438;-54
2023/01/25 02:56:12;;;;;;;23.70;22.70;;;19.40;46.60;;;;;;5093996;28;20545;-54
2023/01/25 02:58:40;;;;;;;23.50;22.50;;;19.40;46.60;;;;;;5093953;28;20450;-55
2023/01/25 03:01:07;;;;;;;26.10;25.00;;;19.40;46.70;;;;;;5099303;28;20460;-57
2023/01/25 03:03:34;;;;;;;24.20;23.17;;;19.40;46.70;;;;;;5114164;28;20446;-55
2023/01/25 03:06:01;;;;;;;24.87;23.77;;;19.40;46.70;;;;;;5114024;28;20572;-54
2023/01/25 03:08:27;;;;;;;23.50;22.40;;;19.40;46.70;;;;;;5114136;28;20882;-56
2023/01/25 03:10:56;;;;;;;24.80;23.40;;;19.40;46.70;;;;;;5110044;28;20435;-52
2023/01/25 03:13:23;;;;;;;24.73;23.63;;;19.40;46.70;;;;;;5093652;28;20955;-54
2023/01/25 03:15:52;;;;;;;23.93;22.83;;;19.40;46.70;;;;;;5093531;28;20450;-56
2023/01/25 03:18:19;;;;;;;24.30;23.20;;;19.40;46.70;;;;;;5093625;28;20817;-53
2023/01/25 03:20:46;;;;;;;24.33;23.23;;;19.30;46.60;;;;;;5109309;28;20448;-54
2023/01/25 03:23:12;;;;;;;24.17;22.97;;;19.40;46.70;;;;;;5113986;28;20449;-55
2023/01/25 03:25:39;;;;;;;25.00;23.80;;;19.40;46.60;;;;;;5113792;28;20861;-52
2023/01/25 03:28:06;;;;;;;25.20;24.00;;;19.40;46.60;;;;;;5113703;28;20554;-55
2023/01/25 03:30:33;;;;;;;25.00;23.73;;;19.40;46.60;;;;;;5111843;28;20818;-52
2023/01/25 03:33:01;;;;;;;24.47;23.37;;;19.30;46.50;;;;;;5095678;28;20447;-56
2023/01/25 03:35:28;;;;;;;24.40;23.30;;;19.40;46.60;;;;;;5093095;28;20457;-55
2023/01/25 03:37:55;;;;;;;24.67;23.50;;;19.30;46.50;;;;;;5108172;28;20466;-56
2023/01/25 03:40:21;;;;;;;25.27;24.17;;;19.30;46.60;;;;;;5113252;28;20973;-53
2023/01/25 03:42:48;;;;;;;25.20;24.10;;;19.30;46.60;;;;;;5113394;28;20540;-54
2023/01/25 03:45:15;;;;;;;24.70;23.60;;;19.30;46.60;;;;;;5113362;28;20532;-56
2023/01/25 03:47:42;;;;;;;24.63;23.43;;;19.30;46.60;;;;;;5098921;28;20478;-53
2023/01/25 03:50:11;;;;;;;23.83;22.73;;;19.30;47.10;;;;;;5093073;28;20532;-56
2023/01/25 03:52:40;;;;;;;25.03;23.90;;;19.30;46.60;;;;;;5092844;28;20446;-55
2023/01/25 03:55:08;;;;;;;25.20;23.90;;;19.30;46.60;;;;;;5092944;28;20450;-54
2023/01/25 03:57:35;;;;;;;25.20;24.10;;;19.30;46.60;;;;;;5104328;28;20461;-56
2023/01/25 04:00:02;;;;;;;25.67;24.47;;;19.30;46.60;;;;;;5112961;28;20446;-56
2023/01/25 04:02:29;;;;;;;27.20;25.80;;;19.30;46.70;;;;;;5112866;28;20984;-55
2023/01/25 04:04:56;;;;;;;25.53;24.30;;;19.30;47.20;;;;;;5113081;28;20448;-52
2023/01/25 04:07:24;;;;;;;25.63;24.40;;;19.30;46.70;;;;;;5104855;28;20481;-56
2023/01/25 04:09:51;;;;;;;24.80;23.60;;;19.40;46.80;;;;;;5104772;28;21006;-56
2023/01/25 04:12:18;;;;;;;25.03;23.93;;;19.40;46.80;;;;;;5112945;28;20537;-56
2023/01/25 04:14:44;;;;;;;26.87;25.50;;;19.40;46.80;;;;;;5112842;28;20442;-55
2023/01/25 04:17:12;;;;;;;26.77;25.33;;;19.40;46.70;;;;;;5107182;28;20545;-54
2023/01/25 04:19:39;;;;;;;25.00;23.80;;;19.40;46.70;;;;;;5092178;28;20454;-52
2023/01/25 04:22:07;;;;;;;25.73;24.53;;;19.50;46.80;;;;;;5092423;28;20453;-52
2023/01/25 04:24:35;;;;;;;26.03;24.77;;;19.40;46.70;;;;;;5092335;28;20883;-53
2023/01/25 04:27:02;;;;;;;25.13;23.90;;;19.40;46.70;;;;;;5097118;28;20478;-54
2023/01/25 04:29:29;;;;;;;25.43;24.23;;;19.40;46.70;;;;;;5092025;28;20807;-54
2023/01/25 04:31:56;;;;;;;25.10;23.90;;;19.40;46.70;;;;;;5092269;28;20529;-54
2023/01/25 04:34:23;;;;;;;25.77;24.57;;;19.50;46.70;;;;;;5092176;28;20627;-52
2023/01/25 04:36:50;;;;;;;25.40;24.20;;;19.50;47.30;;;;;;5107456;28;20987;-53
2023/01/25 04:39:17;;;;;;;26.90;25.70;;;19.50;46.70;;;;;;5112303;28;20532;-56
2023/01/25 04:41:45;;;;;;;26.00;24.70;;;19.50;46.70;;;;;;5112356;28;20437;-56
2023/01/25 04:44:12;;;;;;;26.33;25.03;;;19.50;46.70;;;;;;5112389;28;20447;-57
2023/01/25 04:46:39;;;;;;;24.93;23.83;;;19.50;46.70;;;;;;5098116;28;20478;-53
2023/01/25 04:49:06;;;;;;;24.77;23.67;;;19.50;46.70;;;;;;5091855;28;20521;-52
2023/01/25 04:51:32;;;;;;;25.10;23.90;;;19.50;46.60;;;;;;5091894;28;20541;-53
2023/01/25 04:53:59;;;;;;;25.73;24.53;;;19.50;46.60;;;;;;5091846;28;20525;-52
2023/01/25 04:56:26;;;;;;;25.70;24.40;;;19.50;46.60;;;;;;5092887;28;20551;-55
2023/01/25 04:58:54;;;;;;;26.40;25.10;;;19.50;46.60;;;;;;5091463;28;20810;-53
2023/01/25 05:01:21;;;;;;;27.50;26.20;;;19.50;46.60;;;;;;5091596;28;20537;-52
2023/01/25 05:03:48;;;;;;;27.60;26.30;;;19.50;47.10;;;;;;5091598;28;20573;-53
2023/01/25 05:06:14;;;;;;;28.10;26.83;;;19.50;46.60;;;;;;5100856;28;20481;-53
2023/01/25 05:08:41;;;;;;;28.30;27.00;;;19.60;46.60;;;;;;5112011;28;20449;-53
2023/01/25 05:11:08;;;;;;;29.37;27.97;;;19.60;46.60;;;;;;5111924;28;20829;-52
2023/01/25 05:13:35;;;;;;;28.60;27.07;;;19.60;46.60;;;;;;5112009;28;20536;-56
2023/01/25 05:16:03;;;;;;;28.20;26.80;;;19.60;46.60;;;;;;5105003;28;20438;-53
2023/01/25 05:18:30;;;;;;;28.20;26.87;;;19.60;46.60;;;;;;5091733;28;20448;-54
2023/01/25 05:20:57;;;;;;;28.60;27.20;;;19.60;46.60;;;;;;5091539;28;21031;-56
2023/01/25 05:23:23;;;;;;;27.07;25.57;;;19.60;46.60;;;;;;5091678;28;20443;-55
2023/01/25 05:28:34;;;;;;;27.83;26.50;;;19.60;46.60;;;;;;5108921;28;20579;-54
2023/01/25 05:31:05;;;;;;;27.13;25.77;;;19.60;46.60;;;;;;5095545;28;20548;-56
2023/01/25 05:33:32;;;;;;;28.07;26.70;;;19.60;46.70;;;;;;5091827;28;20441;-53
2023/01/25 05:35:59;;;;;;;27.10;25.90;;;19.60;46.70;;;;;;5103059;28;20447;-52
2023/01/25 05:38:25;;;;;;;28.90;27.40;;;19.60;46.80;;;;;;5103856;28;20792;-53
2023/01/25 05:40:52;;;;;;;26.90;25.63;;;19.70;46.90;;;;;;5091358;28;20932;-52
2023/01/25 05:43:19;;;;;;;28.70;27.10;;;19.70;46.90;;;;;;5091618;28;20529;-51
2023/01/25 05:45:52;;;;;;;28.90;27.43;;;19.70;46.90;;;;;;5091231;28;20442;-54
2023/01/25 05:48:20;;;;;;;29.10;27.50;;;19.70;47.00;;;;;;5091237;28;20867;-56
2023/01/25 05:50:47;;;;;;;27.97;26.57;;;19.70;47.20;;;;;;5091158;28;20446;-55
2023/01/25 05:53:14;;;;;;;27.50;26.20;;;19.70;47.20;;;;;;5091317;28;20538;-54
2023/01/25 05:55:41;;;;;;;27.50;26.20;;;19.70;47.30;;;;;;5091507;28;20538;-55
2023/01/25 05:58:07;;;;;;;30.07;28.57;;;19.70;47.30;;;;;;5090143;28;20549;-52
2023/01/25 06:00:34;;;;;;;29.00;27.53;;;19.70;47.30;;;;;;5091061;28;20541;-53
2023/01/25 06:03:01;;;;;;;29.93;28.33;;;19.70;47.30;;;;;;5091232;28;20461;-55
2023/01/25 06:05:29;;;;;;;29.70;28.10;;;19.70;47.30;;;;;;5091268;28;20484;-55
2023/01/25 06:07:57;;;;;;;30.53;29.00;;;19.70;47.30;;;;;;5090788;28;20931;-52
2023/01/25 06:10:24;;;;;;;29.80;28.20;;;19.70;47.30;;;;;;5092035;28;20461;-55
2023/01/25 06:12:51;;;;;;;29.73;28.23;;;19.80;47.20;;;;;;5094831;28;20448;-55
2023/01/25 06:15:18;;;;;;;31.90;30.10;;;19.80;47.00;;;;;;5094837;28;20450;-54
2023/01/25 06:17:44;;;;;;;31.30;29.50;;;19.80;46.80;;;;;;5094353;28;20553;-55
2023/01/25 06:20:12;;;;;;;32.10;30.20;;;19.90;46.80;;;;;;5094499;28;20541;-55
2023/01/25 06:22:40;;;;;;;33.07;30.23;;;20.00;47.00;;;;;;5094716;28;20534;-54
2023/01/25 06:25:08;;;;;;;34.03;31.93;;;20.00;47.40;;;;;;5094732;28;20533;-54
2023/01/25 06:27:35;;;;;;;35.43;32.40;;;20.00;47.70;;;;;;5094189;28;20486;-52
2023/01/25 06:30:02;;;;;;;35.00;31.23;;;20.10;48.40;;;;;;5094257;28;20541;-52
2023/01/25 06:32:32;;;;;;;32.97;30.50;;;20.10;50.10;;;;;;5094144;28;20536;-52
2023/01/25 06:34:59;;;;;;;32.77;30.00;;;20.10;52.80;;;;;;5093968;28;20442;-54
2023/01/25 06:37:26;;;;;;;30.53;28.17;;;20.20;54.10;;;;;;5094251;28;20458;-50
2023/01/25 06:39:54;;;;;;;33.07;30.47;;;20.20;53.80;;;;;;5094170;28;20820;-50
2023/01/25 06:42:23;;;;;;;33.53;30.97;;;20.30;53.60;;;;;;5094278;28;20477;-54
2023/01/25 06:44:50;;;;;;;32.43;29.77;;;20.40;53.30;;;;;;5093991;28;20446;-51
2023/01/25 06:47:17;;;;;;;34.17;31.70;;;20.40;52.80;;;;;;5094116;28;20486;-51
2023/01/25 06:49:43;;;;;;;33.20;30.53;;;20.50;52.50;;;;;;5094004;28;20814;-51
2023/01/25 06:52:10;;;;;;;33.33;30.53;;;20.50;52.00;;;;;;5093972;28;20545;-51
2023/01/25 06:54:37;;;;;;;34.53;31.73;;;20.60;51.80;;;;;;5093939;28;20442;-53
2023/01/25 06:57:05;;;;;;;30.93;28.73;;;20.60;51.50;;;;;;5093935;28;20549;-51
2023/01/25 06:59:32;;;;;;;32.63;30.40;;;20.60;51.20;;;;;;5093665;28;20442;-52
2023/01/25 07:01:59;;;;;;;31.97;29.97;;;20.60;51.00;;;;;;5093930;28;20443;-51
2023/01/25 07:04:26;;;;;;;30.57;28.60;;;20.60;50.70;;;;;;5093858;28;20533;-53
2023/01/25 07:06:52;;;;;;;32.90;30.50;;;20.60;50.50;;;;;;5093525;28;21097;-50
2023/01/25 07:09:23;;;;;;;30.10;28.30;;;20.60;50.30;;;;;;5093665;28;20438;-50
2023/01/25 07:11:50;;;;;;;31.00;29.10;;;20.60;50.10;;;;;;5093568;28;20460;-52
2023/01/25 07:14:19;;;;;;;34.23;31.67;;;20.60;49.90;;;;;;5093706;28;20807;-50
2023/01/25 07:16:45;;;;;;;33.20;30.87;;;20.60;49.70;;;;;;5093547;28;20469;-52
2023/01/25 07:19:13;;;;;;;31.97;29.70;;;20.70;49.60;;;;;;5093387;28;20545;-50
2023/01/25 07:21:39;;;;;;;31.27;29.17;;;20.60;49.40;;;;;;5093427;28;20448;-51
2023/01/25 07:24:07;;;;;;;30.80;28.70;;;20.70;49.40;;;;;;5093388;28;20453;-50
2023/01/25 07:26:33;;;;;;;30.77;28.77;;;20.60;49.20;;;;;;5093290;28;20804;-50
2023/01/25 07:29:00;;;;;;;31.53;29.73;;;20.60;49.10;;;;;;5093311;28;20477;-50
2023/01/25 07:31:29;;;;;;;32.30;29.77;;;20.60;48.90;;;;;;5093229;28;20541;-52
2023/01/25 07:33:57;;;;;;;30.00;28.30;;;20.60;48.80;;;;;;5093227;28;20571;-50
2023/01/25 07:36:24;;;;;;;30.47;28.47;;;20.60;48.70;;;;;;5093196;28;20473;-50
2023/01/25 07:38:53;;;;;;;32.37;30.27;;;20.60;48.60;;;;;;5092989;28;20478;-50
2023/01/25 07:41:20;;;;;;;30.27;28.37;;;20.60;48.50;;;;;;5093046;28;20443;-50
2023/01/25 07:43:47;;;;;;;30.53;28.80;;;20.60;48.50;;;;;;5093020;28;20453;-51
2023/01/25 07:46:15;;;;;;;31.70;30.00;;;20.60;48.40;;;;;;5092872;28;20466;-50
2023/01/25 07:48:47;;;;;;;31.10;29.20;;;20.60;48.30;;;;;;5092996;28;20569;-54
2023/01/25 07:51:22;;;;;;;33.00;31.00;;;20.60;48.20;;;;;;5092940;28;20438;-50
2023/01/25 07:53:50;;;;;;;33.00;31.00;;;20.50;48.10;;;;;;5092942;28;20850;-53
2023/01/25 07:56:18;;;;;;;31.60;29.43;;;20.50;48.00;;;;;;5092762;28;20458;-51
2023/01/25 07:58:45;;;;;;;30.97;29.17;;;20.50;48.00;;;;;;5092685;28;20797;-50
2023/01/25 08:01:13;;;;;;;33.30;31.00;;;20.50;47.90;;;;;;5092733;28;20881;-53
2023/01/25 08:03:41;;;;;;;30.83;29.03;;;20.50;47.80;;;;;;5092686;28;20477;-51
2023/01/25 08:06:09;;;;;;;34.33;32.13;;;20.50;47.80;;;;;;5092579;28;20557;-51
2023/01/25 08:08:38;;;;;;;31.73;29.83;;;20.40;47.70;;;;;;5092584;28;20484;-50
2023/01/25 08:11:09;;;;;;;31.50;29.60;;;20.40;47.60;;;;;;5092387;28;20793;-51
2023/01/25 08:13:35;;;;;;;30.80;28.97;;;20.40;47.50;;;;;;5092595;28;20823;-50
2023/01/25 08:16:02;;;;;;;30.13;28.43;;;20.40;47.40;;;;;;5092375;28;20533;-50
2023/01/25 08:18:29;;;;;;;31.37;29.10;;;20.40;47.40;;;;;;5092469;28;20891;-52
2023/01/25 08:20:58;;;;;;;34.70;32.20;;;20.30;47.70;;;;;;5092127;28;20545;-52
2023/01/25 08:23:28;;;;;;;29.97;28.17;;;20.30;47.20;;;;;;5092401;28;20454;-52
2023/01/25 08:25:55;;;;;;;30.03;28.47;;;20.30;47.10;;;;;;5092246;28;20474;-53
2023/01/25 08:28:22;;;;;;;32.70;30.53;;;20.30;47.20;;;;;;5092497;28;20898;-54
2023/01/25 08:30:48;;;;;;;29.90;28.40;;;20.30;47.10;;;;;;5092596;28;20446;-51
2023/01/25 08:33:15;;;;;;;31.00;28.90;;;20.30;47.10;;;;;;5092200;28;20450;-51
2023/01/25 08:35:42;;;;;;;30.87;29.13;;;20.30;47.10;;;;;;5092566;28;21035;-52
2023/01/25 08:38:09;;;;;;;29.63;28.07;;;20.30;47.00;;;;;;5092283;28;20541;-51
2023/01/25 08:40:37;;;;;;;31.00;29.40;;;20.30;46.90;;;;;;5092501;28;20456;-51
2023/01/25 08:43:04;;;;;;;32.70;30.70;;;20.30;46.90;;;;;;5092331;28;20478;-51
2023/01/25 08:45:35;;;;;;;31.90;30.20;;;20.40;46.90;;;;;;5091955;28;20442;-51
2023/01/25 08:48:02;;;;;;;34.27;32.27;;;20.30;46.80;;;;;;5091842;28;21006;-52
2023/01/25 08:50:29;;;;;;;31.07;29.27;;;20.40;46.80;;;;;;5091685;28;20446;-54
2023/01/25 08:52:56;;;;;;;29.70;27.93;;;20.40;46.70;;;;;;5091961;28;20931;-50
2023/01/25 08:55:23;;;;;;;30.17;28.20;;;20.40;46.70;;;;;;5091991;28;20935;-50
2023/01/25 08:57:51;;;;;;;30.40;28.63;;;20.40;46.60;;;;;;5091721;28;20458;-50
2023/01/25 09:00:19;;;;;;;31.57;29.87;;;20.40;46.60;;;;;;5091574;28;20533;-50
2023/01/25 09:02:46;;;;;;;30.17;28.47;;;20.40;46.50;;;;;;5091736;28;21034;-50
2023/01/25 09:05:12;;;;;;;30.70;29.00;;;20.30;46.40;;;;;;5091760;28;20545;-50
2023/01/25 09:07:39;;;;;;;30.90;29.20;;;20.30;46.30;;;;;;5091608;28;20487;-51
2023/01/25 09:10:07;;;;;;;30.90;29.10;;;20.30;46.30;;;;;;5091480;28;20530;-53
2023/01/25 09:12:34;;;;;;;30.83;29.13;;;20.30;46.20;;;;;;5091606;28;21006;-51
2023/01/25 09:15:02;;;;;;;30.23;28.43;;;20.30;46.20;;;;;;5091569;28;20441;-51
2023/01/25 09:17:29;;;;;;;31.83;29.93;;;20.30;46.20;;;;;;5091472;28;21006;-50
2023/01/25 09:19:56;;;;;;;32.67;30.87;;;20.30;46.10;;;;;;5091430;28;20942;-50
2023/01/25 09:22:23;;;;;;;32.13;30.10;;;20.30;46.10;;;;;;5091509;28;20533;-52
2023/01/25 09:24:52;;;;;;;31.37;29.50;;;20.30;46.10;;;;;;5091509;28;20446;-52
2023/01/25 09:27:20;;;;;;;30.43;28.83;;;20.30;46.10;;;;;;5091276;28;20561;-53
2023/01/25 09:29:46;;;;;;;30.00;28.40;;;20.20;45.90;;;;;;5091441;28;20454;-50
2023/01/25 09:32:15;;;;;;;30.07;28.53;;;20.20;45.90;;;;;;5091414;28;20525;-52
2023/01/25 09:34:41;;;;;;;31.00;29.10;;;20.30;46.00;;;;;;5091431;28;20537;-52
2023/01/25 09:37:08;;;;;;;30.10;28.40;;;20.20;45.90;;;;;;5091335;28;20462;-50
2023/01/25 09:39:35;;;;;;;31.73;29.97;;;20.20;45.80;;;;;;5091181;28;20995;-52
2023/01/25 09:42:32;;;;;;;31.43;29.73;;;20.20;45.80;;;;;;5091354;28;20542;-51
2023/01/25 09:45:11;;;;;;;30.87;29.27;;;20.20;45.80;;;;;;5085063;28;20785;-50
2023/01/25 09:47:45;;;;;;;30.97;28.83;;;20.10;45.60;;;;;;5095176;28;20488;-51
2023/01/25 09:50:25;;;;;;;32.60;30.80;;;20.10;45.60;;;;;;5095073;28;20532;-52
2023/01/25 09:53:26;;;;;;;30.90;29.20;;;20.10;45.60;;;;;;5095299;28;20529;-50
2023/01/25 09:55:54;;;;;;;30.20;28.30;;;20.10;45.60;;;;;;5091754;28;20462;-52
2023/01/25 09:58:28;;;;;;;31.43;29.60;;;20.10;45.60;;;;;;5095136;28;20542;-50
2023/01/25 10:01:07;;;;;;;30.73;29.03;;;20.10;45.70;;;;;;5094816;28;20441;-51
2023/01/25 10:03:41;;;;;;;31.60;29.80;;;20.10;45.70;;;;;;5095007;28;20544;-50
2023/01/25 10:06:13;;;;;;;30.07;28.40;;;20.10;45.70;;;;;;5094864;28;20475;-53
2023/01/25 10:08:49;;;;;;;29.63;27.93;;;20.10;45.80;;;;;;5094767;28;20540;-50
2023/01/25 10:11:21;;;;;;;30.37;28.67;;;20.10;45.70;;;;;;5094793;28;20921;-50
2023/01/25 10:13:49;;;;;;;29.60;28.10;;;20.20;45.80;;;;;;5095008;28;20452;-50
2023/01/25 10:16:23;;;;;;;30.77;29.10;;;20.20;45.70;;;;;;5094620;28;20466;-50
2023/01/25 10:18:58;;;;;;;30.23;28.63;;;20.20;46.20;;;;;;5094501;28;20541;-50
2023/01/25 10:21:30;;;;;;;30.03;28.43;;;20.20;45.70;;;;;;5094743;28;20450;-52
2023/01/25 10:24:23;;;;;;;31.87;29.80;;;20.20;45.60;;;;;;5094570;28;20442;-50
2023/01/25 10:26:55;;;;;;;29.20;27.70;;;20.20;45.50;;;;;;5094529;28;20462;-50
2023/01/25 10:29:25;;;;;;;31.53;29.83;;;20.20;45.50;;;;;;5094332;28;20482;-50
2023/01/25 10:31:54;;;;;;;29.83;28.33;;;20.20;45.40;;;;;;5094471;28;20450;-50
2023/01/25 10:34:26;;;;;;;31.40;29.70;;;20.20;45.40;;;;;;5094385;28;20449;-51
2023/01/25 10:36:55;;;;;;;29.27;27.60;;;20.20;45.40;;;;;;5094267;28;20462;-50
2023/01/25 10:39:22;;;;;;;31.00;29.20;;;20.20;45.30;;;;;;5094125;28;20529;-50
2023/01/25 10:41:53;;;;;;;30.13;28.37;;;20.20;45.30;;;;;;5094176;28;20457;-51
2023/01/25 10:44:23;;;;;;;31.40;29.70;;;20.20;45.20;;;;;;5094278;28;20438;-52
2023/01/25 10:46:55;;;;;;;30.60;28.90;;;20.20;45.20;;;;;;5094239;28;20500;-51
2023/01/25 10:49:27;;;;;;;31.00;29.27;;;20.20;45.20;;;;;;5093979;28;20478;-50
2023/01/25 10:51:54;;;;;;;31.43;29.53;;;20.20;45.20;;;;;;5094268;28;20854;-52
2023/01/25 10:54:23;;;;;;;30.87;29.23;;;20.20;45.10;;;;;;5093999;28;20529;-50
2023/01/25 10:56:50;;;;;;;31.17;29.57;;;20.20;45.20;;;;;;5093665;28;20470;-50
2023/01/25 10:59:24;;;;;;;30.93;29.43;;;20.10;45.10;;;;;;5093803;28;20926;-50
2023/01/25 11:01:51;;;;;;;30.20;28.60;;;20.10;45.00;;;;;;5093889;28;20811;-49
2023/01/25 11:04:34;;;;;;;31.20;29.43;;;20.10;45.00;;;;;;5093668;28;20454;-51
2023/01/25 11:07:03;;;;;;;31.73;29.93;;;20.10;44.90;;;;;;5093813;28;20975;-50
2023/01/25 11:09:39;;;;;;;31.50;29.80;;;20.10;44.90;;;;;;5093383;28;21018;-55
2023/01/25 11:12:18;;;;;;;31.97;30.17;;;20.00;44.80;;;;;;5093708;28;20819;-51
2023/01/25 11:14:48;;;;;;;31.73;29.90;;;20.00;44.80;;;;;;5093724;28;20450;-50
2023/01/25 11:17:24;;;;;;;31.57;29.50;;;20.00;44.80;;;;;;5094138;28;20524;-51
2023/01/25 11:20:14;;;;;;;31.47;29.70;;;20.00;44.70;;;;;;5093394;28;20783;-50
2023/01/25 11:22:50;;;;;;;30.50;28.73;;;20.00;44.70;;;;;;5093411;28;20928;-49
2023/01/25 11:25:29;;;;;;;30.50;28.83;;;20.00;44.70;;;;;;5093459;28;20449;-50
2023/01/25 11:28:17;;;;;;;32.57;30.77;;;20.00;44.80;;;;;;5093170;28;20458;-50
2023/01/25 11:30:44;;;;;;;31.20;29.50;;;20.00;44.80;;;;;;5093218;28;20453;-50
2023/01/25 11:33:12;;;;;;;30.60;28.90;;;20.00;44.90;;;;;;5093328;28;20439;-55
2023/01/25 11:35:52;;;;;;;30.63;29.00;;;20.00;44.90;;;;;;5093287;28;20448;-54
2023/01/25 11:38:23;;;;;;;30.17;28.50;;;20.00;44.90;;;;;;5093059;28;20439;-54
2023/01/25 11:40:56;;;;;;;30.93;29.13;;;20.00;44.80;;;;;;5093033;28;20447;-52
2023/01/25 11:43:40;;;;;;;31.73;29.83;;;20.00;44.80;;;;;;5093118;28;20955;-52
2023/01/25 11:46:29;;;;;;;31.00;29.13;;;20.10;44.80;;;;;;5092995;28;20469;-50
2023/01/25 11:49:08;;;;;;;30.97;29.27;;;20.10;44.80;;;;;;5092810;28;20553;-50
2023/01/25 11:51:43;;;;;;;32.27;30.37;;;20.10;44.70;;;;;;5092853;28;20452;-49
2023/01/25 11:54:38;;;;;;;31.50;29.70;;;20.10;44.70;;;;;;5092905;28;20532;-49
2023/01/25 11:57:23;;;;;;;32.63;30.90;;;20.10;44.70;;;;;;5092854;28;20466;-51
2023/01/25 12:00:05;;;;;;;30.33;28.73;;;20.10;44.60;;;;;;5092530;28;20446;-51
2023/01/25 12:03:07;;;;;;;31.30;29.70;;;20.10;44.60;;;;;;5092630;28;20485;-50
2023/01/25 12:05:50;;;;;;;31.60;29.80;;;20.10;44.60;;;;;;5067400;28;20920;-51
2023/01/25 12:08:42;;;;;;;30.03;28.40;;;20.10;44.50;;;;;;5091811;28;20484;-50
2023/01/25 12:11:18;;;;;;;31.10;29.30;;;20.10;44.50;;;;;;5092445;28;20442;-50
2023/01/25 12:13:58;;;;;;;32.43;30.53;;;20.10;44.60;;;;;;5092598;28;20456;-50
2023/01/25 12:16:46;;;;;;;30.87;29.13;;;20.10;44.50;;;;;;5092449;28;20735;-50
2023/01/25 12:19:35;;;;;;;31.80;30.00;;;20.10;44.50;;;;;;5092384;28;20442;-50
2023/01/25 12:22:23;;;;;;;33.27;31.30;;;20.10;44.50;;;;;;5092338;28;20445;-51
2023/01/25 12:25:00;;;;;;;31.37;29.67;;;20.10;44.40;;;;;;5092374;28;20452;-54
2023/01/25 12:27:38;;;;;;;32.40;30.57;;;20.10;44.40;;;;;;5092244;28;20469;-51
2023/01/25 12:30:15;;;;;;;32.70;30.80;;;20.10;44.50;;;;;;5091963;28;20488;-51
2023/01/25 12:32:48;;;;;;;33.30;31.40;;;20.00;44.30;;;;;;5092113;28;20843;-51
2023/01/25 12:35:25;;;;;;;35.50;33.50;;;20.10;44.40;;;;;;5092198;28;20453;-50
2023/01/25 12:37:57;;;;;;;31.60;29.80;;;20.10;44.40;;;;;;5092104;28;20466;-52
2023/01/25 12:40:36;;;;;;;33.37;31.57;;;20.00;44.30;;;;;;5091841;28;20447;-51
2023/01/25 12:43:05;;;;;;;31.10;29.50;;;20.00;44.30;;;;;;5091992;28;20445;-50